Terminal Aerodrome Forecast
Issued by NWS

Home | Current Version | Previous Version | Text Only | Print | Product List | Glossary On
Versions: 1 2 3 4 5 6 7 8 9 10 11 12
000
FTUS44 KOUN 281147
TAFLAW
TAF
KLAW 281147Z 2812/0112 19010KT 5SM BR BKN120
     FM281400 20014KT P6SM BKN150
     FM281800 21015G25KT P6SM BKN150
     FM010000 23013KT P6SM SCT150
     FM010700 32014G24KT P6SM FEW150=

USA.gov is the U.S. government's official web portal to all federal, state and local government web resources and services.